Bilsdale, United Kingdom
Current Conditions -  °F | °C
As of 8:20 PM on Friday 28 Nov 2014 (Local Time) from EGNV Reporting Station
Haze Haze  
Wind Chill: 45°   Ceiling: 700
Heat Index: 48°   Visibility: 3mi
Dew Point: 46°   Wind: 7mph
Humidity: 93%   Direction: 70°ENE
Pressure: 29.85"   Gusts: NA
Location:  54.37°N, 1.12°W
Report Text: EGNV 282020Z 07006KT 5000 BR SCT005 BKN007 09/08 Q1011
Loading
Personal Weather Stations






























Interactive Weather Map New forecast layout! Learn more

10-Day Weather Forecast

Advertisements
Track Severe Weather on mobile